sensor_id;sensor_type;location;lat;lon;timestamp;P1;durP1;ratioP1;P2;durP2;ratioP2
37895;SDS011;23733;53.254;10.430;2022-12-05T00:02:04;59.07;;;26.17;;
37895;SDS011;23733;53.254;10.430;2022-12-05T00:04:30;67.63;;;26.67;;
37895;SDS011;23733;53.254;10.430;2022-12-05T00:06:56;47.47;;;22.30;;
37895;SDS011;23733;53.254;10.430;2022-12-05T00:09:23;50.63;;;22.77;;
37895;SDS011;23733;53.254;10.430;2022-12-05T00:11:49;50.10;;;21.93;;
37895;SDS011;23733;53.254;10.430;2022-12-05T00:14:15;56.30;;;23.63;;
37895;SDS011;23733;53.254;10.430;2022-12-05T00:16:42;54.43;;;23.03;;
37895;SDS011;23733;53.254;10.430;2022-12-05T00:19:10;51.20;;;24.17;;
37895;SDS011;23733;53.254;10.430;2022-12-05T00:21:37;59.93;;;24.93;;
37895;SDS011;23733;53.254;10.430;2022-12-05T00:24:04;57.20;;;23.10;;
37895;SDS011;23733;53.254;10.430;2022-12-05T00:26:31;66.37;;;25.40;;
37895;SDS011;23733;53.254;10.430;2022-12-05T00:28:58;58.87;;;25.27;;
37895;SDS011;23733;53.254;10.430;2022-12-05T00:31:25;62.27;;;28.17;;
37895;SDS011;23733;53.254;10.430;2022-12-05T00:33:52;49.60;;;21.93;;
37895;SDS011;23733;53.254;10.430;2022-12-05T00:36:20;52.00;;;22.73;;
37895;SDS011;23733;53.254;10.430;2022-12-05T00:38:47;48.60;;;22.83;;
37895;SDS011;23733;53.254;10.430;2022-12-05T00:41:14;51.03;;;23.80;;
37895;SDS011;23733;53.254;10.430;2022-12-05T00:43:41;48.47;;;22.57;;
37895;SDS011;23733;53.254;10.430;2022-12-05T00:46:09;56.60;;;24.10;;
37895;SDS011;23733;53.254;10.430;2022-12-05T00:48:35;54.10;;;25.25;;
37895;SDS011;23733;53.254;10.430;2022-12-05T00:51:06;54.07;;;23.97;;
37895;SDS011;23733;53.254;10.430;2022-12-05T00:53:33;51.40;;;22.83;;
37895;SDS011;23733;53.254;10.430;2022-12-05T00:56:06;47.70;;;23.13;;
37895;SDS011;23733;53.254;10.430;2022-12-05T00:58:33;46.93;;;21.17;;
37895;SDS011;23733;53.254;10.430;2022-12-05T01:03:32;44.73;;;21.77;;
37895;SDS011;23733;53.254;10.430;2022-12-05T01:06:02;50.20;;;23.63;;
37895;SDS011;23733;53.254;10.430;2022-12-05T01:08:30;44.07;;;21.33;;
37895;SDS011;23733;53.254;10.430;2022-12-05T01:10:57;57.03;;;24.80;;
37895;SDS011;23733;53.254;10.430;2022-12-05T01:13:23;47.07;;;21.87;;
37895;SDS011;23733;53.254;10.430;2022-12-05T01:15:50;47.80;;;22.47;;
37895;SDS011;23733;53.254;10.430;2022-12-05T01:18:17;50.17;;;23.57;;
37895;SDS011;23733;53.254;10.430;2022-12-05T01:20:44;45.43;;;21.10;;
37895;SDS011;23733;53.254;10.430;2022-12-05T01:23:11;49.43;;;24.63;;
37895;SDS011;23733;53.254;10.430;2022-12-05T01:25:41;54.53;;;25.33;;
37895;SDS011;23733;53.254;10.430;2022-12-05T01:28:07;54.77;;;24.37;;
37895;SDS011;23733;53.254;10.430;2022-12-05T01:30:40;53.83;;;23.30;;
37895;SDS011;23733;53.254;10.430;2022-12-05T01:33:07;50.87;;;23.10;;
37895;SDS011;23733;53.254;10.430;2022-12-05T01:35:35;54.33;;;23.40;;
37895;SDS011;23733;53.254;10.430;2022-12-05T01:38:02;46.73;;;21.03;;
37895;SDS011;23733;53.254;10.430;2022-12-05T01:40:28;47.70;;;21.90;;
37895;SDS011;23733;53.254;10.430;2022-12-05T01:42:55;49.00;;;22.60;;
37895;SDS011;23733;53.254;10.430;2022-12-05T01:45:24;47.43;;;21.50;;
37895;SDS011;23733;53.254;10.430;2022-12-05T01:47:51;46.90;;;22.70;;
37895;SDS011;23733;53.254;10.430;2022-12-05T01:50:18;54.27;;;24.47;;
37895;SDS011;23733;53.254;10.430;2022-12-05T01:52:45;45.53;;;22.03;;
37895;SDS011;23733;53.254;10.430;2022-12-05T01:55:12;48.67;;;23.20;;
37895;SDS011;23733;53.254;10.430;2022-12-05T01:57:39;43.17;;;21.30;;
37895;SDS011;23733;53.254;10.430;2022-12-05T02:00:11;50.40;;;23.90;;
37895;SDS011;23733;53.254;10.430;2022-12-05T02:02:38;48.38;;;26.13;;
37895;SDS011;23733;53.254;10.430;2022-12-05T02:05:06;52.43;;;25.97;;
37895;SDS011;23733;53.254;10.430;2022-12-05T02:07:34;44.90;;;23.30;;
37895;SDS011;23733;53.254;10.430;2022-12-05T02:10:02;46.20;;;21.93;;
37895;SDS011;23733;53.254;10.430;2022-12-05T02:12:28;49.63;;;22.37;;
37895;SDS011;23733;53.254;10.430;2022-12-05T02:15:10;44.67;;;22.33;;
37895;SDS011;23733;53.254;10.430;2022-12-05T02:17:43;45.30;;;21.23;;
37895;SDS011;23733;53.254;10.430;2022-12-05T02:25:30;47.37;;;22.57;;
37895;SDS011;23733;53.254;10.430;2022-12-05T02:30:57;48.47;;;22.03;;
37895;SDS011;23733;53.254;10.430;2022-12-05T02:43:41;46.23;;;22.13;;
37895;SDS011;23733;53.254;10.430;2022-12-05T02:46:16;54.03;;;24.30;;
37895;SDS011;23733;53.254;10.430;2022-12-05T02:48:44;42.80;;;20.97;;
37895;SDS011;23733;53.254;10.430;2022-12-05T02:51:12;46.60;;;21.87;;
37895;SDS011;23733;53.254;10.430;2022-12-05T02:53:39;45.80;;;21.67;;
37895;SDS011;23733;53.254;10.430;2022-12-05T02:56:07;51.93;;;23.13;;
37895;SDS011;23733;53.254;10.430;2022-12-05T02:58:35;50.87;;;23.07;;
37895;SDS011;23733;53.254;10.430;2022-12-05T03:01:03;45.13;;;22.90;;
37895;SDS011;23733;53.254;10.430;2022-12-05T03:03:30;44.33;;;21.57;;
37895;SDS011;23733;53.254;10.430;2022-12-05T03:06:08;51.03;;;23.20;;
37895;SDS011;23733;53.254;10.430;2022-12-05T03:08:39;49.27;;;23.50;;
37895;SDS011;23733;53.254;10.430;2022-12-05T03:11:07;50.73;;;22.57;;
37895;SDS011;23733;53.254;10.430;2022-12-05T03:13:44;51.37;;;23.50;;
37895;SDS011;23733;53.254;10.430;2022-12-05T03:16:15;47.95;;;22.83;;
37895;SDS011;23733;53.254;10.430;2022-12-05T03:18:46;43.33;;;21.07;;
37895;SDS011;23733;53.254;10.430;2022-12-05T03:24:02;44.93;;;21.67;;
37895;SDS011;23733;53.254;10.430;2022-12-05T03:26:31;46.00;;;21.80;;
37895;SDS011;23733;53.254;10.430;2022-12-05T03:29:12;47.93;;;21.90;;
37895;SDS011;23733;53.254;10.430;2022-12-05T03:31:49;42.77;;;20.63;;
37895;SDS011;23733;53.254;10.430;2022-12-05T03:34:20;46.70;;;20.20;;
37895;SDS011;23733;53.254;10.430;2022-12-05T03:36:51;56.00;;;24.83;;
37895;SDS011;23733;53.254;10.430;2022-12-05T03:39:28;47.53;;;21.33;;
37895;SDS011;23733;53.254;10.430;2022-12-05T03:41:59;40.83;;;20.33;;
37895;SDS011;23733;53.254;10.430;2022-12-05T03:44:33;42.50;;;20.23;;
37895;SDS011;23733;53.254;10.430;2022-12-05T03:47:03;52.50;;;23.83;;
37895;SDS011;23733;53.254;10.430;2022-12-05T03:54:24;48.60;;;23.47;;
37895;SDS011;23733;53.254;10.430;2022-12-05T03:56:53;49.43;;;22.17;;
37895;SDS011;23733;53.254;10.430;2022-12-05T03:59:33;53.90;;;23.70;;
37895;SDS011;23733;53.254;10.430;2022-12-05T04:02:03;44.00;;;21.00;;
37895;SDS011;23733;53.254;10.430;2022-12-05T04:04:33;50.43;;;22.33;;
37895;SDS011;23733;53.254;10.430;2022-12-05T04:07:00;48.37;;;21.67;;
37895;SDS011;23733;53.254;10.430;2022-12-05T04:09:30;42.60;;;20.77;;
37895;SDS011;23733;53.254;10.430;2022-12-05T04:11:59;44.63;;;21.90;;
37895;SDS011;23733;53.254;10.430;2022-12-05T04:14:31;41.27;;;19.70;;
37895;SDS011;23733;53.254;10.430;2022-12-05T04:17:03;47.27;;;21.17;;
37895;SDS011;23733;53.254;10.430;2022-12-05T04:19:33;46.07;;;21.90;;
37895;SDS011;23733;53.254;10.430;2022-12-05T04:22:25;44.37;;;21.20;;
37895;SDS011;23733;53.254;10.430;2022-12-05T04:24:53;52.75;;;26.27;;
37895;SDS011;23733;53.254;10.430;2022-12-05T04:30:25;49.60;;;22.27;;
37895;SDS011;23733;53.254;10.430;2022-12-05T04:35:21;58.13;;;24.60;;
37895;SDS011;23733;53.254;10.430;2022-12-05T04:37:50;47.60;;;20.97;;
37895;SDS011;23733;53.254;10.430;2022-12-05T04:40:19;52.17;;;22.37;;
37895;SDS011;23733;53.254;10.430;2022-12-05T04:42:48;51.23;;;23.10;;
37895;SDS011;23733;53.254;10.430;2022-12-05T04:45:16;58.70;;;23.67;;
37895;SDS011;23733;53.254;10.430;2022-12-05T04:47:46;53.50;;;23.70;;
37895;SDS011;23733;53.254;10.430;2022-12-05T04:50:14;58.70;;;24.87;;
37895;SDS011;23733;53.254;10.430;2022-12-05T04:52:41;57.03;;;24.20;;
37895;SDS011;23733;53.254;10.430;2022-12-05T04:55:13;56.53;;;24.03;;
37895;SDS011;23733;53.254;10.430;2022-12-05T04:57:42;54.73;;;23.60;;
37895;SDS011;23733;53.254;10.430;2022-12-05T05:00:09;53.20;;;23.07;;
37895;SDS011;23733;53.254;10.430;2022-12-05T05:02:39;51.63;;;23.03;;
37895;SDS011;23733;53.254;10.430;2022-12-05T05:05:08;46.57;;;22.43;;
37895;SDS011;23733;53.254;10.430;2022-12-05T05:07:42;44.17;;;20.93;;
37895;SDS011;23733;53.254;10.430;2022-12-05T05:10:09;49.17;;;22.77;;
37895;SDS011;23733;53.254;10.430;2022-12-05T05:12:38;50.33;;;22.77;;
37895;SDS011;23733;53.254;10.430;2022-12-05T05:15:04;50.60;;;22.00;;
37895;SDS011;23733;53.254;10.430;2022-12-05T05:17:30;51.17;;;23.53;;
37895;SDS011;23733;53.254;10.430;2022-12-05T05:19:57;48.23;;;21.80;;
37895;SDS011;23733;53.254;10.430;2022-12-05T05:22:45;52.37;;;23.43;;
37895;SDS011;23733;53.254;10.430;2022-12-05T05:25:12;56.33;;;24.43;;
37895;SDS011;23733;53.254;10.430;2022-12-05T05:27:38;63.17;;;25.47;;
37895;SDS011;23733;53.254;10.430;2022-12-05T05:30:05;48.50;;;22.83;;
37895;SDS011;23733;53.254;10.430;2022-12-05T05:32:31;53.93;;;23.27;;
37895;SDS011;23733;53.254;10.430;2022-12-05T05:34:58;57.13;;;24.00;;
37895;SDS011;23733;53.254;10.430;2022-12-05T05:37:24;61.90;;;25.07;;
37895;SDS011;23733;53.254;10.430;2022-12-05T05:39:50;62.43;;;24.17;;
37895;SDS011;23733;53.254;10.430;2022-12-05T05:42:17;67.50;;;29.38;;
37895;SDS011;23733;53.254;10.430;2022-12-05T05:44:43;60.43;;;26.13;;
37895;SDS011;23733;53.254;10.430;2022-12-05T05:47:09;60.23;;;24.63;;
37895;SDS011;23733;53.254;10.430;2022-12-05T05:49:36;71.10;;;27.30;;
37895;SDS011;23733;53.254;10.430;2022-12-05T05:52:02;70.90;;;28.27;;
37895;SDS011;23733;53.254;10.430;2022-12-05T05:54:28;72.63;;;28.37;;
37895;SDS011;23733;53.254;10.430;2022-12-05T05:56:55;78.57;;;29.23;;
37895;SDS011;23733;53.254;10.430;2022-12-05T05:59:21;72.43;;;27.73;;
37895;SDS011;23733;53.254;10.430;2022-12-05T06:01:47;66.80;;;27.00;;
37895;SDS011;23733;53.254;10.430;2022-12-05T06:04:14;71.20;;;28.73;;
37895;SDS011;23733;53.254;10.430;2022-12-05T06:06:40;74.40;;;31.13;;
37895;SDS011;23733;53.254;10.430;2022-12-05T06:09:06;73.60;;;29.17;;
37895;SDS011;23733;53.254;10.430;2022-12-05T06:11:33;79.00;;;30.83;;
37895;SDS011;23733;53.254;10.430;2022-12-05T06:13:59;65.93;;;26.73;;
37895;SDS011;23733;53.254;10.430;2022-12-05T06:16:26;68.10;;;28.00;;
37895;SDS011;23733;53.254;10.430;2022-12-05T06:18:53;78.10;;;29.87;;
37895;SDS011;23733;53.254;10.430;2022-12-05T06:21:19;86.82;;;32.92;;
37895;SDS011;23733;53.254;10.430;2022-12-05T06:23:46;79.23;;;30.63;;
37895;SDS011;23733;53.254;10.430;2022-12-05T06:26:13;77.37;;;28.57;;
37895;SDS011;23733;53.254;10.430;2022-12-05T06:28:40;93.35;;;35.97;;
37895;SDS011;23733;53.254;10.430;2022-12-05T06:31:11;83.67;;;30.83;;
37895;SDS011;23733;53.254;10.430;2022-12-05T06:33:38;79.80;;;30.80;;
37895;SDS011;23733;53.254;10.430;2022-12-05T06:36:05;85.07;;;30.10;;
37895;SDS011;23733;53.254;10.430;2022-12-05T06:38:32;81.23;;;29.80;;
37895;SDS011;23733;53.254;10.430;2022-12-05T06:40:58;70.57;;;26.63;;
37895;SDS011;23733;53.254;10.430;2022-12-05T06:43:25;91.50;;;31.40;;
37895;SDS011;23733;53.254;10.430;2022-12-05T06:45:51;98.50;;;31.33;;
37895;SDS011;23733;53.254;10.430;2022-12-05T06:48:17;88.23;;;28.83;;
37895;SDS011;23733;53.254;10.430;2022-12-05T06:50:48;92.03;;;29.93;;
37895;SDS011;23733;53.254;10.430;2022-12-05T06:53:14;84.63;;;27.83;;
37895;SDS011;23733;53.254;10.430;2022-12-05T06:55:41;94.00;;;30.63;;
37895;SDS011;23733;53.254;10.430;2022-12-05T06:58:07;99.47;;;33.53;;
37895;SDS011;23733;53.254;10.430;2022-12-05T07:00:33;84.47;;;27.63;;
37895;SDS011;23733;53.254;10.430;2022-12-05T07:03:18;73.20;;;26.70;;
37895;SDS011;23733;53.254;10.430;2022-12-05T07:05:44;89.73;;;29.23;;
37895;SDS011;23733;53.254;10.430;2022-12-05T07:08:11;91.13;;;29.70;;
37895;SDS011;23733;53.254;10.430;2022-12-05T07:10:37;77.10;;;26.30;;
37895;SDS011;23733;53.254;10.430;2022-12-05T07:13:03;91.93;;;29.07;;
37895;SDS011;23733;53.254;10.430;2022-12-05T07:15:30;77.47;;;30.95;;
37895;SDS011;23733;53.254;10.430;2022-12-05T07:17:56;88.53;;;28.73;;
37895;SDS011;23733;53.254;10.430;2022-12-05T07:20:22;68.00;;;23.50;;
37895;SDS011;23733;53.254;10.430;2022-12-05T07:22:48;76.67;;;25.13;;
37895;SDS011;23733;53.254;10.430;2022-12-05T07:25:18;74.53;;;24.73;;
37895;SDS011;23733;53.254;10.430;2022-12-05T07:27:46;72.03;;;22.07;;
37895;SDS011;23733;53.254;10.430;2022-12-05T07:30:13;63.90;;;23.08;;
37895;SDS011;23733;53.254;10.430;2022-12-05T07:32:39;67.77;;;23.40;;
37895;SDS011;23733;53.254;10.430;2022-12-05T07:35:05;64.03;;;22.03;;
37895;SDS011;23733;53.254;10.430;2022-12-05T07:37:32;53.60;;;21.00;;
37895;SDS011;23733;53.254;10.430;2022-12-05T07:39:58;64.33;;;23.27;;
37895;SDS011;23733;53.254;10.430;2022-12-05T07:42:25;55.87;;;21.57;;
37895;SDS011;23733;53.254;10.430;2022-12-05T07:44:51;55.93;;;20.57;;
37895;SDS011;23733;53.254;10.430;2022-12-05T07:47:17;64.33;;;22.00;;
37895;SDS011;23733;53.254;10.430;2022-12-05T07:49:44;48.10;;;19.37;;
37895;SDS011;23733;53.254;10.430;2022-12-05T07:52:10;55.73;;;20.47;;
37895;SDS011;23733;53.254;10.430;2022-12-05T07:54:36;51.50;;;19.67;;
37895;SDS011;23733;53.254;10.430;2022-12-05T07:57:03;49.00;;;19.70;;
37895;SDS011;23733;53.254;10.430;2022-12-05T07:59:29;45.13;;;17.03;;
37895;SDS011;23733;53.254;10.430;2022-12-05T08:01:55;46.47;;;21.27;;
37895;SDS011;23733;53.254;10.430;2022-12-05T08:04:34;49.63;;;18.57;;
37895;SDS011;23733;53.254;10.430;2022-12-05T08:07:03;48.40;;;19.00;;
37895;SDS011;23733;53.254;10.430;2022-12-05T08:09:29;41.57;;;17.47;;
37895;SDS011;23733;53.254;10.430;2022-12-05T08:11:55;44.60;;;17.63;;
37895;SDS011;23733;53.254;10.430;2022-12-05T08:14:22;50.27;;;18.30;;
37895;SDS011;23733;53.254;10.430;2022-12-05T08:16:48;40.23;;;16.93;;
37895;SDS011;23733;53.254;10.430;2022-12-05T08:19:14;43.97;;;18.80;;
37895;SDS011;23733;53.254;10.430;2022-12-05T08:21:44;43.80;;;18.30;;
37895;SDS011;23733;53.254;10.430;2022-12-05T08:24:10;51.47;;;18.57;;
37895;SDS011;23733;53.254;10.430;2022-12-05T08:26:37;57.75;;;24.60;;
37895;SDS011;23733;53.254;10.430;2022-12-05T08:29:04;49.67;;;20.27;;
37895;SDS011;23733;53.254;10.430;2022-12-05T08:31:32;49.93;;;18.60;;
37895;SDS011;23733;53.254;10.430;2022-12-05T08:33:59;48.47;;;20.35;;
37895;SDS011;23733;53.254;10.430;2022-12-05T08:36:26;58.33;;;21.17;;
37895;SDS011;23733;53.254;10.430;2022-12-05T08:38:56;59.70;;;20.93;;
37895;SDS011;23733;53.254;10.430;2022-12-05T08:41:23;56.17;;;20.63;;
37895;SDS011;23733;53.254;10.430;2022-12-05T08:44:02;57.73;;;20.97;;
37895;SDS011;23733;53.254;10.430;2022-12-05T08:46:33;54.63;;;20.17;;
37895;SDS011;23733;53.254;10.430;2022-12-05T08:49:00;47.23;;;17.67;;
37895;SDS011;23733;53.254;10.430;2022-12-05T08:51:26;46.43;;;19.10;;
37895;SDS011;23733;53.254;10.430;2022-12-05T08:53:53;48.40;;;18.77;;
37895;SDS011;23733;53.254;10.430;2022-12-05T08:56:23;51.20;;;18.83;;
37895;SDS011;23733;53.254;10.430;2022-12-05T08:58:49;49.80;;;21.73;;
37895;SDS011;23733;53.254;10.430;2022-12-05T09:01:28;54.63;;;20.53;;
37895;SDS011;23733;53.254;10.430;2022-12-05T09:03:58;50.53;;;18.73;;
37895;SDS011;23733;53.254;10.430;2022-12-05T09:06:29;42.83;;;17.47;;
37895;SDS011;23733;53.254;10.430;2022-12-05T09:08:59;40.77;;;17.30;;
37895;SDS011;23733;53.254;10.430;2022-12-05T09:11:27;43.23;;;16.13;;
37895;SDS011;23733;53.254;10.430;2022-12-05T09:13:54;43.13;;;16.90;;
37895;SDS011;23733;53.254;10.430;2022-12-05T09:16:23;49.80;;;18.33;;
37895;SDS011;23733;53.254;10.430;2022-12-05T09:18:49;43.97;;;17.73;;
37895;SDS011;23733;53.254;10.430;2022-12-05T09:21:17;42.87;;;16.50;;
37895;SDS011;23733;53.254;10.430;2022-12-05T09:23:43;46.53;;;18.50;;
37895;SDS011;23733;53.254;10.430;2022-12-05T09:26:12;39.70;;;16.43;;
37895;SDS011;23733;53.254;10.430;2022-12-05T09:28:39;43.20;;;17.80;;
37895;SDS011;23733;53.254;10.430;2022-12-05T09:31:06;48.43;;;17.53;;
37895;SDS011;23733;53.254;10.430;2022-12-05T09:33:34;46.80;;;17.27;;
37895;SDS011;23733;53.254;10.430;2022-12-05T09:36:01;51.83;;;18.80;;
37895;SDS011;23733;53.254;10.430;2022-12-05T09:38:28;38.93;;;15.93;;
37895;SDS011;23733;53.254;10.430;2022-12-05T09:41:06;39.13;;;16.40;;
37895;SDS011;23733;53.254;10.430;2022-12-05T09:43:53;43.50;;;16.50;;
37895;SDS011;23733;53.254;10.430;2022-12-05T09:46:34;41.63;;;16.50;;
37895;SDS011;23733;53.254;10.430;2022-12-05T09:49:04;49.27;;;17.33;;
37895;SDS011;23733;53.254;10.430;2022-12-05T09:51:41;40.47;;;15.27;;
37895;SDS011;23733;53.254;10.430;2022-12-05T09:54:10;35.97;;;15.20;;
37895;SDS011;23733;53.254;10.430;2022-12-05T09:56:40;40.37;;;15.40;;
37895;SDS011;23733;53.254;10.430;2022-12-05T09:59:11;36.83;;;15.53;;
37895;SDS011;23733;53.254;10.430;2022-12-05T10:12:03;37.83;;;15.03;;
37895;SDS011;23733;53.254;10.430;2022-12-05T10:17:27;38.77;;;14.00;;
37895;SDS011;23733;53.254;10.430;2022-12-05T10:19:57;40.40;;;15.83;;
37895;SDS011;23733;53.254;10.430;2022-12-05T10:22:27;42.93;;;17.57;;
37895;SDS011;23733;53.254;10.430;2022-12-05T10:24:57;37.10;;;16.13;;
37895;SDS011;23733;53.254;10.430;2022-12-05T10:27:30;38.73;;;15.77;;
37895;SDS011;23733;53.254;10.430;2022-12-05T10:30:01;33.90;;;14.83;;
37895;SDS011;23733;53.254;10.430;2022-12-05T10:32:36;40.00;;;18.08;;
37895;SDS011;23733;53.254;10.430;2022-12-05T10:35:14;41.43;;;16.23;;
37895;SDS011;23733;53.254;10.430;2022-12-05T10:37:45;40.17;;;16.00;;
37895;SDS011;23733;53.254;10.430;2022-12-05T10:40:13;37.77;;;15.70;;
37895;SDS011;23733;53.254;10.430;2022-12-05T10:42:42;32.30;;;13.83;;
37895;SDS011;23733;53.254;10.430;2022-12-05T10:45:20;39.87;;;15.67;;
37895;SDS011;23733;53.254;10.430;2022-12-05T10:47:47;39.50;;;16.07;;
37895;SDS011;23733;53.254;10.430;2022-12-05T10:50:24;37.87;;;16.20;;
37895;SDS011;23733;53.254;10.430;2022-12-05T10:52:53;36.93;;;15.07;;
37895;SDS011;23733;53.254;10.430;2022-12-05T10:55:20;36.47;;;14.67;;
37895;SDS011;23733;53.254;10.430;2022-12-05T10:57:50;32.27;;;13.57;;
37895;SDS011;23733;53.254;10.430;2022-12-05T11:00:21;34.33;;;14.40;;
37895;SDS011;23733;53.254;10.430;2022-12-05T11:02:49;42.47;;;15.00;;
37895;SDS011;23733;53.254;10.430;2022-12-05T11:05:28;31.43;;;14.17;;
37895;SDS011;23733;53.254;10.430;2022-12-05T11:07:57;32.93;;;14.70;;
37895;SDS011;23733;53.254;10.430;2022-12-05T11:12:50;32.67;;;14.10;;
37895;SDS011;23733;53.254;10.430;2022-12-05T11:17:53;33.97;;;13.87;;
37895;SDS011;23733;53.254;10.430;2022-12-05T11:20:33;34.80;;;13.47;;
37895;SDS011;23733;53.254;10.430;2022-12-05T11:23:04;32.97;;;14.80;;
37895;SDS011;23733;53.254;10.430;2022-12-05T11:25:40;41.10;;;15.73;;
37895;SDS011;23733;53.254;10.430;2022-12-05T11:30:55;34.10;;;15.53;;
37895;SDS011;23733;53.254;10.430;2022-12-05T11:33:23;41.53;;;16.43;;
37895;SDS011;23733;53.254;10.430;2022-12-05T11:35:51;32.87;;;14.07;;
37895;SDS011;23733;53.254;10.430;2022-12-05T11:38:18;37.77;;;14.50;;
37895;SDS011;23733;53.254;10.430;2022-12-05T11:40:54;36.50;;;14.17;;
37895;SDS011;23733;53.254;10.430;2022-12-05T11:43:34;30.93;;;12.57;;
37895;SDS011;23733;53.254;10.430;2022-12-05T11:46:09;25.63;;;11.83;;
37895;SDS011;23733;53.254;10.430;2022-12-05T11:48:46;35.07;;;14.47;;
37895;SDS011;23733;53.254;10.430;2022-12-05T11:51:38;32.83;;;13.70;;
37895;SDS011;23733;53.254;10.430;2022-12-05T11:54:11;32.60;;;12.93;;
37895;SDS011;23733;53.254;10.430;2022-12-05T12:04:49;34.70;;;13.87;;
37895;SDS011;23733;53.254;10.430;2022-12-05T12:09:53;29.77;;;14.00;;
37895;SDS011;23733;53.254;10.430;2022-12-05T12:17:50;33.90;;;14.40;;
37895;SDS011;23733;53.254;10.430;2022-12-05T12:20:24;33.03;;;14.40;;
37895;SDS011;23733;53.254;10.430;2022-12-05T12:23:00;33.73;;;15.03;;
37895;SDS011;23733;53.254;10.430;2022-12-05T12:28:44;28.53;;;13.93;;
37895;SDS011;23733;53.254;10.430;2022-12-05T12:31:51;32.07;;;14.00;;
37895;SDS011;23733;53.254;10.430;2022-12-05T12:37:33;31.80;;;14.30;;
37895;SDS011;23733;53.254;10.430;2022-12-05T12:40:20;28.03;;;12.93;;
37895;SDS011;23733;53.254;10.430;2022-12-05T12:42:50;29.53;;;12.50;;
37895;SDS011;23733;53.254;10.430;2022-12-05T12:45:26;29.73;;;12.37;;
37895;SDS011;23733;53.254;10.430;2022-12-05T12:50:30;26.67;;;11.57;;
37895;SDS011;23733;53.254;10.430;2022-12-05T12:53:07;24.80;;;12.57;;
37895;SDS011;23733;53.254;10.430;2022-12-05T13:04:02;23.10;;;10.90;;
37895;SDS011;23733;53.254;10.430;2022-12-05T13:06:32;23.00;;;10.90;;
37895;SDS011;23733;53.254;10.430;2022-12-05T13:09:17;20.37;;;10.43;;
37895;SDS011;23733;53.254;10.430;2022-12-05T13:11:46;21.60;;;10.37;;
37895;SDS011;23733;53.254;10.430;2022-12-05T13:14:15;22.57;;;10.80;;
37895;SDS011;23733;53.254;10.430;2022-12-05T13:16:43;18.53;;;9.50;;
37895;SDS011;23733;53.254;10.430;2022-12-05T13:21:45;20.45;;;11.80;;
37895;SDS011;23733;53.254;10.430;2022-12-05T13:24:14;20.53;;;10.23;;
37895;SDS011;23733;53.254;10.430;2022-12-05T13:26:45;19.97;;;9.87;;
37895;SDS011;23733;53.254;10.430;2022-12-05T13:29:47;17.87;;;9.07;;
37895;SDS011;23733;53.254;10.430;2022-12-05T13:34:54;22.03;;;10.23;;
37895;SDS011;23733;53.254;10.430;2022-12-05T13:37:23;19.93;;;10.07;;
37895;SDS011;23733;53.254;10.430;2022-12-05T13:40:31;17.80;;;9.00;;
37895;SDS011;23733;53.254;10.430;2022-12-05T13:43:26;18.00;;;9.73;;
37895;SDS011;23733;53.254;10.430;2022-12-05T13:48:23;16.93;;;8.93;;
37895;SDS011;23733;53.254;10.430;2022-12-05T13:50:57;16.47;;;9.53;;
37895;SDS011;23733;53.254;10.430;2022-12-05T13:53:31;16.73;;;9.10;;
37895;SDS011;23733;53.254;10.430;2022-12-05T13:56:06;18.27;;;9.50;;
37895;SDS011;23733;53.254;10.430;2022-12-05T13:58:49;19.10;;;8.87;;
37895;SDS011;23733;53.254;10.430;2022-12-05T14:09:03;16.93;;;8.80;;
37895;SDS011;23733;53.254;10.430;2022-12-05T14:11:29;18.90;;;9.80;;
37895;SDS011;23733;53.254;10.430;2022-12-05T14:13:56;18.00;;;9.73;;
37895;SDS011;23733;53.254;10.430;2022-12-05T14:19:03;17.00;;;9.13;;
37895;SDS011;23733;53.254;10.430;2022-12-05T14:21:35;20.43;;;9.10;;
37895;SDS011;23733;53.254;10.430;2022-12-05T14:37:26;19.03;;;9.47;;
37895;SDS011;23733;53.254;10.430;2022-12-05T14:39:57;18.93;;;10.13;;
37895;SDS011;23733;53.254;10.430;2022-12-05T14:45:22;18.67;;;9.53;;
37895;SDS011;23733;53.254;10.430;2022-12-05T14:47:50;21.43;;;9.70;;
37895;SDS011;23733;53.254;10.430;2022-12-05T14:52:43;17.43;;;9.27;;
37895;SDS011;23733;53.254;10.430;2022-12-05T14:55:11;17.93;;;9.03;;
37895;SDS011;23733;53.254;10.430;2022-12-05T14:57:45;16.97;;;8.77;;
37895;SDS011;23733;53.254;10.430;2022-12-05T15:00:16;18.20;;;9.63;;
37895;SDS011;23733;53.254;10.430;2022-12-05T15:02:44;21.50;;;10.57;;
37895;SDS011;23733;53.254;10.430;2022-12-05T15:07:38;19.43;;;10.07;;
37895;SDS011;23733;53.254;10.430;2022-12-05T15:13:20;17.27;;;9.17;;
37895;SDS011;23733;53.254;10.430;2022-12-05T15:15:59;15.33;;;9.20;;
37895;SDS011;23733;53.254;10.430;2022-12-05T15:18:30;15.50;;;8.97;;
37895;SDS011;23733;53.254;10.430;2022-12-05T15:21:01;16.93;;;9.23;;
37895;SDS011;23733;53.254;10.430;2022-12-05T15:26:05;22.13;;;9.60;;
37895;SDS011;23733;53.254;10.430;2022-12-05T15:28:37;17.20;;;9.40;;
37895;SDS011;23733;53.254;10.430;2022-12-05T15:31:03;15.40;;;9.23;;
37895;SDS011;23733;53.254;10.430;2022-12-05T15:33:34;17.00;;;9.67;;
37895;SDS011;23733;53.254;10.430;2022-12-05T15:36:00;17.83;;;9.60;;
37895;SDS011;23733;53.254;10.430;2022-12-05T15:38:28;16.63;;;9.23;;
37895;SDS011;23733;53.254;10.430;2022-12-05T15:40:56;18.03;;;9.70;;
37895;SDS011;23733;53.254;10.430;2022-12-05T15:43:25;19.07;;;9.40;;
37895;SDS011;23733;53.254;10.430;2022-12-05T15:46:08;17.13;;;9.57;;
37895;SDS011;23733;53.254;10.430;2022-12-05T15:48:38;20.17;;;9.60;;
37895;SDS011;23733;53.254;10.430;2022-12-05T15:51:04;17.47;;;9.43;;
37895;SDS011;23733;53.254;10.430;2022-12-05T15:53:32;21.07;;;10.57;;
37895;SDS011;23733;53.254;10.430;2022-12-05T15:56:07;18.47;;;10.37;;
37895;SDS011;23733;53.254;10.430;2022-12-05T15:58:46;19.30;;;10.27;;
37895;SDS011;23733;53.254;10.430;2022-12-05T16:01:21;19.27;;;10.67;;
37895;SDS011;23733;53.254;10.430;2022-12-05T16:03:52;21.07;;;10.50;;
37895;SDS011;23733;53.254;10.430;2022-12-05T16:06:34;27.20;;;9.93;;
37895;SDS011;23733;53.254;10.430;2022-12-05T16:09:14;20.07;;;8.83;;
37895;SDS011;23733;53.254;10.430;2022-12-05T16:12:00;16.83;;;9.17;;
37895;SDS011;23733;53.254;10.430;2022-12-05T16:14:34;20.77;;;8.93;;
37895;SDS011;23733;53.254;10.430;2022-12-05T16:17:02;19.77;;;9.23;;
37895;SDS011;23733;53.254;10.430;2022-12-05T16:19:30;16.43;;;8.37;;
37895;SDS011;23733;53.254;10.430;2022-12-05T16:22:06;19.90;;;9.60;;
37895;SDS011;23733;53.254;10.430;2022-12-05T16:24:38;19.87;;;8.40;;
37895;SDS011;23733;53.254;10.430;2022-12-05T16:27:11;15.23;;;8.63;;
37895;SDS011;23733;53.254;10.430;2022-12-05T16:29:38;19.30;;;9.57;;
37895;SDS011;23733;53.254;10.430;2022-12-05T16:32:26;19.27;;;10.13;;
37895;SDS011;23733;53.254;10.430;2022-12-05T16:34:51;20.00;;;10.00;;
37895;SDS011;23733;53.254;10.430;2022-12-05T16:37:20;22.83;;;12.40;;
37895;SDS011;23733;53.254;10.430;2022-12-05T16:39:48;24.73;;;13.37;;
37895;SDS011;23733;53.254;10.430;2022-12-05T16:42:24;24.23;;;13.17;;